Time;durP1;ratioP1;P1;durP2;ratioP2;P2;SDS_P1;SDS_P2;PMS_P1;PMS_P2;Temp;Humidity;BMP_temperature;BMP_pressure;BME280_temperature;BME280_humidity;BME280_pressure;Samples;Min_cycle;Max_cycle;Signal;HPM_P1;HPM_P2
2021/11/20 00:01:54;;;;;;;35.03;31.17;;;7.90;99.90;;;;;;5071925;28;20446;-72
2021/11/20 00:04:21;;;;;;;34.03;29.90;;;7.90;99.90;;;;;;5071646;28;20454;-72
2021/11/20 00:06:53;;;;;;;35.87;31.10;;;7.90;99.90;;;;;;5072016;28;20842;-73
2021/11/20 00:09:22;;;;;;;34.87;31.43;;;7.90;99.90;;;;;;5071689;28;20447;-72
2021/11/20 00:11:51;;;;;;;34.77;31.20;;;8.00;99.90;;;;;;5071669;28;20764;-71
2021/11/20 00:14:22;;;;;;;31.57;28.47;;;8.00;99.90;;;;;;5071478;28;20533;-72
2021/11/20 00:16:52;;;;;;;36.07;32.30;;;7.90;99.90;;;;;;5071785;28;20432;-72
2021/11/20 00:19:20;;;;;;;33.30;29.63;;;7.90;99.90;;;;;;5071707;28;20455;-72
2021/11/20 00:21:49;;;;;;;33.23;30.03;;;7.90;99.90;;;;;;5071385;28;20459;-71
2021/11/20 00:24:21;;;;;;;33.77;30.27;;;7.90;99.90;;;;;;5071284;28;20455;-72
2021/11/20 00:26:48;;;;;;;33.30;29.90;;;7.80;99.90;;;;;;5071228;28;20487;-72
2021/11/20 00:29:22;;;;;;;34.07;29.93;;;7.80;99.90;;;;;;5071472;28;20462;-72
2021/11/20 00:31:54;;;;;;;34.60;31.03;;;7.80;99.90;;;;;;5071062;28;20477;-71
2021/11/20 00:34:23;;;;;;;33.00;29.67;;;7.80;99.90;;;;;;5071144;28;20474;-70
2021/11/20 00:36:51;;;;;;;38.23;31.57;;;7.80;99.90;;;;;;5071088;28;20451;-70
2021/11/20 00:39:21;;;;;;;33.47;29.97;;;7.80;99.90;;;;;;5071072;28;20451;-70
2021/11/20 00:41:48;;;;;;;34.93;31.43;;;7.80;99.90;;;;;;5071252;28;20451;-70
2021/11/20 00:44:15;;;;;;;34.70;31.30;;;7.80;99.90;;;;;;5070962;28;20794;-70
2021/11/20 00:46:42;;;;;;;37.07;33.07;;;7.90;99.90;;;;;;5070910;28;20893;-70
2021/11/20 00:49:11;;;;;;;35.50;31.83;;;7.90;99.90;;;;;;5070138;28;20454;-70
2021/11/20 00:51:38;;;;;;;35.30;31.60;;;7.80;99.90;;;;;;5070899;28;20439;-71
2021/11/20 00:54:06;;;;;;;35.70;32.00;;;7.80;99.90;;;;;;5070652;28;20479;-71
2021/11/20 00:56:34;;;;;;;35.87;32.40;;;7.80;99.90;;;;;;5070699;28;20439;-70
2021/11/20 00:59:01;;;;;;;33.07;29.80;;;7.80;99.90;;;;;;5070832;28;20451;-70
2021/11/20 01:01:31;;;;;;;32.10;29.07;;;7.80;99.90;;;;;;5070932;28;20450;-70
2021/11/20 01:03:58;;;;;;;35.17;31.40;;;7.80;99.90;;;;;;5071122;28;20551;-70
2021/11/20 01:06:26;;;;;;;32.80;29.50;;;7.80;99.90;;;;;;5070654;28;20493;-70
2021/11/20 01:08:55;;;;;;;32.63;29.63;;;7.80;99.90;;;;;;5070787;28;20907;-71
2021/11/20 01:11:26;;;;;;;35.70;32.03;;;7.80;99.90;;;;;;5070638;28;20454;-70
2021/11/20 01:13:55;;;;;;;31.37;27.97;;;7.80;99.90;;;;;;5070674;28;20449;-70
2021/11/20 01:16:22;;;;;;;33.13;29.90;;;7.80;99.90;;;;;;5070749;28;20455;-71
2021/11/20 01:18:49;;;;;;;32.50;29.20;;;7.90;99.90;;;;;;5070552;28;21080;-70
2021/11/20 01:21:17;;;;;;;32.10;29.10;;;7.90;99.90;;;;;;5070611;28;20451;-70
2021/11/20 01:23:46;;;;;;;31.57;28.40;;;7.90;99.90;;;;;;5070621;28;20454;-71
2021/11/20 01:28:51;;;;;;;31.37;28.30;;;7.90;99.90;;;;;;5749986;22;20843;-74
2021/11/20 01:31:19;;;;;;;33.30;29.77;;;7.90;99.90;;;;;;4979286;28;20476;-73
2021/11/20 01:33:47;;;;;;;32.77;29.60;;;7.90;99.90;;;;;;4971572;28;21311;-73
2021/11/20 01:36:16;;;;;;;33.37;29.80;;;7.90;99.90;;;;;;4981707;28;20463;-73
2021/11/20 01:38:45;;;;;;;33.40;29.40;;;7.90;99.90;;;;;;4971619;28;20454;-72
2021/11/20 01:41:12;;;;;;;30.80;27.50;;;7.80;99.90;;;;;;4971370;28;20815;-72
2021/11/20 01:43:39;;;;;;;32.13;28.83;;;7.80;99.90;;;;;;4971326;28;20455;-72
2021/11/20 01:46:12;;;;;;;32.97;29.73;;;7.80;99.90;;;;;;4971366;28;20732;-72
2021/11/20 01:49:10;;;;;;;31.60;27.07;;;7.90;99.90;;;;;;4971156;28;20452;-73
2021/11/20 01:51:40;;;;;;;33.33;29.93;;;7.90;99.90;;;;;;4970000;28;20602;-73
2021/11/20 01:54:25;;;;;;;31.70;28.60;;;7.90;99.90;;;;;;4970968;28;20452;-73
2021/11/20 01:57:02;;;;;;;31.53;28.43;;;7.90;99.90;;;;;;4970907;28;20451;-72
2021/11/20 01:59:34;;;;;;;32.00;28.87;;;7.90;99.90;;;;;;4971805;28;20442;-72
2021/11/20 02:02:10;;;;;;;33.90;30.47;;;7.90;99.90;;;;;;4974931;28;20455;-72
2021/11/20 02:04:43;;;;;;;32.30;29.00;;;7.90;99.90;;;;;;4975051;28;20462;-72
2021/11/20 02:07:15;;;;;;;30.23;27.17;;;7.90;99.90;;;;;;4974594;28;20483;-73
2021/11/20 02:09:48;;;;;;;30.23;27.33;;;7.90;99.90;;;;;;4974962;28;20451;-74
2021/11/20 02:12:18;;;;;;;32.43;29.43;;;7.80;99.90;;;;;;4974836;28;20447;-72
2021/11/20 02:14:46;;;;;;;31.70;28.60;;;7.80;99.90;;;;;;4974671;28;20447;-72
2021/11/20 02:17:16;;;;;;;30.17;27.40;;;7.80;99.90;;;;;;4974642;28;20460;-73
2021/11/20 02:19:46;;;;;;;30.47;27.60;;;7.80;99.90;;;;;;4974832;28;20459;-72
2021/11/20 02:22:18;;;;;;;32.00;28.90;;;7.90;99.90;;;;;;4974571;28;21015;-72
2021/11/20 02:24:45;;;;;;;30.00;27.10;;;7.80;99.90;;;;;;4974714;28;20448;-73
2021/11/20 02:27:13;;;;;;;29.30;26.17;;;7.80;99.90;;;;;;4974253;28;20501;-72
2021/11/20 02:29:46;;;;;;;28.43;25.70;;;7.80;99.90;;;;;;4974211;28;20483;-72
2021/11/20 02:32:16;;;;;;;30.27;27.17;;;7.80;99.90;;;;;;4974357;28;20462;-73
2021/11/20 02:34:43;;;;;;;29.70;26.80;;;7.80;99.90;;;;;;4974286;28;20967;-73
2021/11/20 02:37:11;;;;;;;31.60;28.23;;;7.80;99.90;;;;;;4983668;28;20463;-73
2021/11/20 02:39:40;;;;;;;31.00;28.03;;;7.80;99.90;;;;;;4974967;28;20990;-73
2021/11/20 02:42:10;;;;;;;30.67;27.83;;;7.70;99.90;;;;;;4974094;28;20458;-73
2021/11/20 02:44:38;;;;;;;29.03;26.33;;;7.70;99.90;;;;;;4973828;28;20458;-73
2021/11/20 02:47:08;;;;;;;30.70;27.80;;;7.70;99.90;;;;;;4973962;28;20513;-73
2021/11/20 02:49:36;;;;;;;28.57;25.80;;;7.70;99.90;;;;;;4974215;28;20444;-73
2021/11/20 02:52:07;;;;;;;30.93;27.93;;;7.80;99.90;;;;;;4973985;28;20454;-73
2021/11/20 02:54:34;;;;;;;30.93;28.00;;;7.80;99.90;;;;;;4973843;28;20456;-72
2021/11/20 02:57:04;;;;;;;31.50;28.33;;;7.80;99.90;;;;;;4974124;28;20945;-72
2021/11/20 02:59:31;;;;;;;29.40;26.90;;;7.70;99.90;;;;;;4973785;28;20455;-73
2021/11/20 03:01:59;;;;;;;30.70;27.70;;;7.80;99.90;;;;;;4974323;28;20478;-72
2021/11/20 03:04:26;;;;;;;31.27;28.27;;;7.80;99.90;;;;;;4973633;28;20463;-72
2021/11/20 03:06:57;;;;;;;31.47;28.27;;;7.80;99.90;;;;;;4973409;28;20488;-73
2021/11/20 03:09:26;;;;;;;31.83;28.50;;;7.80;99.90;;;;;;4973572;28;20459;-73
2021/11/20 03:11:54;;;;;;;31.00;27.73;;;7.70;99.90;;;;;;4972368;28;20505;-73
2021/11/20 03:14:21;;;;;;;30.17;27.27;;;7.70;99.90;;;;;;4973617;28;20474;-73
2021/11/20 03:16:50;;;;;;;30.80;27.67;;;7.70;99.90;;;;;;4973501;28;20474;-73
2021/11/20 03:19:18;;;;;;;30.90;27.80;;;7.70;99.90;;;;;;4973413;28;20465;-73
2021/11/20 03:21:47;;;;;;;30.37;27.40;;;7.70;99.90;;;;;;4973630;28;20462;-73
2021/11/20 03:24:17;;;;;;;30.63;28.00;;;7.70;99.90;;;;;;4973815;28;20451;-73
2021/11/20 03:26:45;;;;;;;30.03;27.23;;;7.80;99.90;;;;;;4973284;28;20498;-72
2021/11/20 03:29:12;;;;;;;31.90;28.77;;;7.80;99.90;;;;;;4973090;28;20475;-72
2021/11/20 03:31:40;;;;;;;32.00;28.93;;;7.80;99.90;;;;;;4973304;28;20869;-71
2021/11/20 03:34:07;;;;;;;30.23;27.63;;;7.80;99.90;;;;;;4972816;28;20462;-71
2021/11/20 03:36:35;;;;;;;30.20;27.37;;;7.80;99.90;;;;;;4973082;28;20451;-71
2021/11/20 03:39:03;;;;;;;30.73;27.80;;;7.90;99.90;;;;;;4973012;28;20451;-71
2021/11/20 03:41:31;;;;;;;31.83;28.70;;;7.80;99.90;;;;;;4973268;28;20799;-71
2021/11/20 03:43:57;;;;;;;30.67;27.67;;;7.80;99.90;;;;;;4972820;28;20976;-71
2021/11/20 03:46:24;;;;;;;31.63;28.23;;;7.80;99.90;;;;;;4971398;28;20447;-71
2021/11/20 03:48:51;;;;;;;32.80;29.17;;;7.90;99.90;;;;;;4972617;28;20843;-71
2021/11/20 03:51:19;;;;;;;30.60;27.57;;;7.90;99.90;;;;;;4973050;28;20456;-71
2021/11/20 03:53:45;;;;;;;31.17;28.13;;;7.90;99.90;;;;;;4972962;28;20466;-74
2021/11/20 03:56:13;;;;;;;31.07;27.97;;;7.90;99.90;;;;;;4972644;28;20448;-71
2021/11/20 03:58:41;;;;;;;31.00;27.90;;;7.80;99.90;;;;;;4972786;28;20452;-71
2021/11/20 04:01:10;;;;;;;31.20;28.27;;;7.80;99.90;;;;;;4972778;28;20612;-71
2021/11/20 04:03:39;;;;;;;30.40;27.20;;;7.70;99.90;;;;;;4972552;28;20447;-70
2021/11/20 04:06:12;;;;;;;31.87;28.90;;;7.70;99.90;;;;;;4972506;28;20451;-71
2021/11/20 04:08:38;;;;;;;29.93;27.17;;;7.70;99.90;;;;;;4972958;28;20640;-73
2021/11/20 04:11:06;;;;;;;30.40;27.40;;;7.80;99.90;;;;;;4972457;28;20451;-73
2021/11/20 04:13:33;;;;;;;31.07;28.27;;;7.70;99.90;;;;;;4972852;28;20474;-74
2021/11/20 04:16:01;;;;;;;29.00;26.27;;;7.80;99.90;;;;;;4972884;28;20580;-73
2021/11/20 04:18:27;;;;;;;32.63;29.20;;;7.80;99.90;;;;;;4972576;28;20514;-73
2021/11/20 04:20:54;;;;;;;29.97;27.03;;;7.80;99.90;;;;;;4972456;28;20459;-73
2021/11/20 04:23:21;;;;;;;30.97;28.17;;;7.80;99.90;;;;;;4972258;28;20451;-73
2021/11/20 04:25:47;;;;;;;29.60;26.50;;;7.80;99.90;;;;;;4972288;28;20453;-73
2021/11/20 04:28:14;;;;;;;27.77;25.17;;;7.70;99.90;;;;;;4972270;28;20498;-73
2021/11/20 04:30:42;;;;;;;31.10;28.03;;;7.70;99.90;;;;;;4972258;28;20459;-73
2021/11/20 04:33:12;;;;;;;28.13;25.33;;;7.70;99.90;;;;;;4972348;28;20464;-73
2021/11/20 04:35:39;;;;;;;30.07;27.10;;;7.70;99.90;;;;;;4971882;28;21125;-73
2021/11/20 04:38:07;;;;;;;29.03;26.33;;;7.70;99.90;;;;;;4972176;28;20484;-73
2021/11/20 04:40:35;;;;;;;28.57;25.90;;;7.80;99.90;;;;;;4972004;28;20452;-73
2021/11/20 04:43:02;;;;;;;28.27;25.67;;;7.80;99.90;;;;;;4971989;28;20554;-73
2021/11/20 04:45:32;;;;;;;31.17;28.13;;;7.70;99.90;;;;;;4972208;28;20453;-73
2021/11/20 04:47:59;;;;;;;29.87;27.07;;;7.80;99.90;;;;;;4972126;28;20480;-71
2021/11/20 04:50:28;;;;;;;29.50;26.83;;;7.80;99.90;;;;;;4971882;28;20451;-73
2021/11/20 04:52:55;;;;;;;27.40;24.57;;;7.70;99.90;;;;;;4971771;28;20455;-73
2021/11/20 04:55:22;;;;;;;29.43;26.67;;;7.70;99.90;;;;;;4971872;28;20462;-73
2021/11/20 04:57:49;;;;;;;29.17;26.40;;;7.80;99.90;;;;;;4971776;28;20933;-73
2021/11/20 05:00:19;;;;;;;35.63;27.63;;;7.80;99.90;;;;;;4972155;28;20456;-73
2021/11/20 05:02:46;;;;;;;29.67;26.83;;;7.80;99.90;;;;;;4971969;28;20975;-74
2021/11/20 05:05:13;;;;;;;32.13;28.83;;;7.80;99.90;;;;;;4971866;28;20934;-73
2021/11/20 05:07:41;;;;;;;28.90;25.87;;;7.80;99.90;;;;;;4971920;28;20495;-71
2021/11/20 05:10:10;;;;;;;28.87;26.03;;;7.80;99.90;;;;;;4971760;28;20454;-74
2021/11/20 05:12:37;;;;;;;28.23;25.73;;;7.80;99.90;;;;;;4971596;28;20450;-74
2021/11/20 05:15:06;;;;;;;28.63;25.37;;;7.80;99.90;;;;;;4971422;28;20506;-73
2021/11/20 05:17:33;;;;;;;29.57;26.47;;;7.70;99.90;;;;;;4971561;28;20459;-71
2021/11/20 05:20:00;;;;;;;28.23;25.40;;;7.70;99.90;;;;;;4971683;28;20968;-75
2021/11/20 05:22:27;;;;;;;29.27;26.37;;;7.70;99.90;;;;;;4971590;28;20455;-76
2021/11/20 05:24:57;;;;;;;29.03;26.20;;;7.70;99.90;;;;;;4971553;28;20698;-73
2021/11/20 05:27:24;;;;;;;28.77;26.03;;;7.70;99.90;;;;;;4968269;28;20487;-74
2021/11/20 05:29:56;;;;;;;28.77;26.07;;;7.70;99.90;;;;;;4970650;28;20483;-73
2021/11/20 05:32:23;;;;;;;31.20;28.17;;;7.70;99.90;;;;;;4971690;28;20490;-73
2021/11/20 05:34:50;;;;;;;29.77;26.87;;;7.70;99.90;;;;;;4972347;28;20455;-73
2021/11/20 05:37:16;;;;;;;27.33;24.70;;;7.70;99.90;;;;;;4975638;28;20451;-73
2021/11/20 05:39:43;;;;;;;27.97;25.33;;;7.70;99.90;;;;;;4975629;28;20462;-73
2021/11/20 05:42:12;;;;;;;29.10;26.10;;;7.70;99.90;;;;;;4975352;28;20469;-74
2021/11/20 05:44:39;;;;;;;30.10;27.10;;;7.70;99.90;;;;;;4975286;28;20511;-74
2021/11/20 05:47:06;;;;;;;29.40;26.50;;;7.70;99.90;;;;;;4975052;28;20455;-74
2021/11/20 05:49:36;;;;;;;27.60;25.23;;;7.70;99.90;;;;;;4975362;28;20455;-74
2021/11/20 05:52:04;;;;;;;29.63;26.63;;;7.70;99.90;;;;;;4975274;28;20459;-75
2021/11/20 05:54:32;;;;;;;29.63;26.63;;;7.70;99.90;;;;;;4975140;28;20823;-72
2021/11/20 05:56:59;;;;;;;29.73;26.77;;;7.70;99.90;;;;;;4986244;28;20443;-73
2021/11/20 05:59:27;;;;;;;28.90;26.10;;;7.70;99.90;;;;;;4975201;28;20454;-73
2021/11/20 06:01:55;;;;;;;31.07;27.90;;;7.70;99.90;;;;;;4974822;28;20873;-73
2021/11/20 06:04:22;;;;;;;28.17;25.37;;;7.70;99.90;;;;;;4975161;28;20451;-73
2021/11/20 06:06:49;;;;;;;30.07;27.20;;;7.70;99.90;;;;;;4974975;28;20458;-73
2021/11/20 06:09:16;;;;;;;30.00;27.00;;;7.80;99.90;;;;;;4975164;28;20490;-73
2021/11/20 06:11:42;;;;;;;27.53;24.90;;;7.70;99.90;;;;;;4974812;28;20459;-73
2021/11/20 06:14:09;;;;;;;30.60;27.40;;;7.70;99.90;;;;;;4974653;28;20957;-73
2021/11/20 06:16:37;;;;;;;28.17;25.23;;;7.70;99.90;;;;;;4974357;28;20447;-74
2021/11/20 06:19:05;;;;;;;27.87;25.23;;;7.70;99.90;;;;;;4974605;28;20980;-73
2021/11/20 06:21:32;;;;;;;31.03;28.10;;;7.70;99.90;;;;;;4974923;28;20458;-73
2021/11/20 06:23:59;;;;;;;30.37;27.10;;;7.70;99.90;;;;;;4974500;28;20465;-73
2021/11/20 06:26:25;;;;;;;28.73;26.07;;;7.70;99.90;;;;;;4974319;28;20466;-73
2021/11/20 06:28:52;;;;;;;30.63;27.67;;;7.70;99.90;;;;;;4973906;28;20491;-74
2021/11/20 06:31:21;;;;;;;29.87;26.90;;;7.70;99.90;;;;;;4974766;28;20452;-73
2021/11/20 06:33:50;;;;;;;27.57;24.97;;;7.70;99.90;;;;;;4974499;28;20487;-73
2021/11/20 06:36:18;;;;;;;31.00;28.07;;;7.70;99.90;;;;;;4974296;28;20927;-73
2021/11/20 06:38:45;;;;;;;28.97;26.13;;;7.70;99.90;;;;;;4974471;28;20456;-73
2021/11/20 06:41:12;;;;;;;35.40;28.00;;;7.70;99.90;;;;;;4974308;28;20854;-73
2021/11/20 06:43:40;;;;;;;28.80;26.13;;;7.70;99.90;;;;;;4974321;28;20465;-73
2021/11/20 06:46:09;;;;;;;29.37;26.37;;;7.70;99.90;;;;;;4974221;28;20462;-72
2021/11/20 06:48:37;;;;;;;29.37;26.37;;;7.80;99.90;;;;;;4973885;28;20487;-73
2021/11/20 06:51:06;;;;;;;28.47;25.87;;;7.80;99.90;;;;;;4974247;28;20972;-73
2021/11/20 06:53:33;;;;;;;28.17;25.20;;;7.70;99.90;;;;;;4974354;28;20826;-73
2021/11/20 06:56:01;;;;;;;28.27;25.57;;;7.70;99.90;;;;;;4974224;28;20491;-72
2021/11/20 06:58:53;;;;;;;28.57;25.97;;;7.80;99.90;;;;;;4974375;28;20451;-73
2021/11/20 07:01:23;;;;;;;29.50;26.47;;;7.80;99.90;;;;;;4974076;28;20538;-74
2021/11/20 07:03:53;;;;;;;31.77;28.43;;;7.70;99.90;;;;;;4973689;28;20460;-73
2021/11/20 07:06:23;;;;;;;27.93;25.23;;;7.70;99.90;;;;;;4974092;28;20541;-74
2021/11/20 07:08:53;;;;;;;30.10;27.10;;;7.80;99.90;;;;;;4973858;28;20996;-73
2021/11/20 07:11:20;;;;;;;30.30;27.40;;;7.80;99.90;;;;;;4973545;28;20511;-73
2021/11/20 07:13:48;;;;;;;30.67;27.40;;;7.80;99.90;;;;;;4974005;28;20466;-74
2021/11/20 07:16:16;;;;;;;34.13;29.47;;;7.90;99.90;;;;;;4974011;28;20466;-74
2021/11/20 07:18:43;;;;;;;31.23;28.13;;;7.90;99.90;;;;;;4973829;28;20443;-74
2021/11/20 07:21:11;;;;;;;30.67;27.33;;;7.90;99.90;;;;;;4973460;28;20872;-73
2021/11/20 07:23:40;;;;;;;31.07;28.07;;;7.90;99.90;;;;;;4973504;28;20530;-73
2021/11/20 07:26:08;;;;;;;31.60;28.00;;;7.80;99.90;;;;;;4973471;28;20455;-73
2021/11/20 07:28:36;;;;;;;33.90;29.10;;;7.90;99.90;;;;;;4973151;28;20503;-72
2021/11/20 07:31:03;;;;;;;31.33;27.80;;;7.90;99.90;;;;;;4973677;28;20459;-73
2021/11/20 07:33:32;;;;;;;30.70;27.60;;;7.90;99.90;;;;;;4973515;28;20455;-73
2021/11/20 07:36:00;;;;;;;30.73;27.57;;;8.00;99.90;;;;;;4973628;28;20460;-73
2021/11/20 07:38:29;;;;;;;33.30;29.80;;;8.00;99.90;;;;;;4973432;28;20455;-72
2021/11/20 07:40:57;;;;;;;32.60;29.10;;;8.00;99.90;;;;;;4973208;28;20967;-73
2021/11/20 07:43:24;;;;;;;33.33;30.07;;;8.00;99.90;;;;;;4972950;28;20460;-71
2021/11/20 07:45:51;;;;;;;30.13;27.13;;;8.00;99.90;;;;;;4973029;28;20455;-72
2021/11/20 07:48:21;;;;;;;32.73;29.30;;;8.10;99.90;;;;;;4973359;28;20506;-73
2021/11/20 07:50:49;;;;;;;31.93;28.50;;;8.10;99.90;;;;;;4973071;28;20558;-73
2021/11/20 07:53:17;;;;;;;35.30;28.93;;;8.10;99.90;;;;;;4973185;28;20456;-73
2021/11/20 07:55:44;;;;;;;30.93;27.70;;;8.00;99.90;;;;;;4973064;28;20459;-73
2021/11/20 07:58:13;;;;;;;31.83;28.93;;;8.00;99.90;;;;;;4972579;28;20448;-73
2021/11/20 08:00:41;;;;;;;31.33;28.00;;;8.00;99.90;;;;;;4972956;28;20459;-72
2021/11/20 08:03:09;;;;;;;31.20;28.00;;;8.10;99.90;;;;;;4972913;28;20843;-72
2021/11/20 08:05:36;;;;;;;30.93;28.13;;;8.10;99.90;;;;;;4972562;28;20451;-73
2021/11/20 08:08:03;;;;;;;31.00;28.00;;;8.20;99.90;;;;;;4973063;28;20834;-70
2021/11/20 08:10:32;;;;;;;31.20;28.27;;;8.30;99.90;;;;;;4972863;28;20455;-71
2021/11/20 08:12:59;;;;;;;30.67;27.87;;;8.30;99.90;;;;;;4973021;28;20451;-71
2021/11/20 08:15:29;;;;;;;31.10;27.90;;;8.30;99.90;;;;;;4972518;28;20961;-71
2021/11/20 08:17:56;;;;;;;34.53;28.90;;;8.30;99.90;;;;;;4972570;28;20507;-72
2021/11/20 08:20:26;;;;;;;33.27;30.00;;;8.30;99.90;;;;;;4972487;28;20470;-71
2021/11/20 08:22:53;;;;;;;33.23;29.70;;;8.40;99.90;;;;;;4972507;28;20478;-72
2021/11/20 08:25:23;;;;;;;30.23;27.23;;;8.40;99.90;;;;;;4972300;28;20451;-72
2021/11/20 08:27:50;;;;;;;33.70;28.60;;;8.40;99.90;;;;;;4972160;28;20480;-71
2021/11/20 08:30:21;;;;;;;34.57;30.13;;;8.50;99.90;;;;;;4971929;28;20507;-71
2021/11/20 08:32:50;;;;;;;33.57;30.07;;;8.50;99.90;;;;;;4972459;28;20526;-70
2021/11/20 08:35:17;;;;;;;31.23;28.13;;;8.70;99.90;;;;;;4972514;28;20455;-71
2021/11/20 08:37:44;;;;;;;31.87;28.60;;;8.60;99.90;;;;;;4972404;28;20451;-71
2021/11/20 08:40:13;;;;;;;32.10;28.63;;;8.60;99.90;;;;;;4971753;28;20459;-71
2021/11/20 08:42:41;;;;;;;31.93;28.53;;;8.60;99.90;;;;;;4971780;28;20922;-71
2021/11/20 08:45:10;;;;;;;31.83;28.43;;;8.60;99.90;;;;;;4971985;28;20822;-70
2021/11/20 08:47:37;;;;;;;32.80;28.60;;;8.80;99.90;;;;;;4972042;28;20828;-71
2021/11/20 08:50:07;;;;;;;34.40;30.87;;;8.80;99.90;;;;;;4971648;28;20494;-71
2021/11/20 08:52:33;;;;;;;30.90;28.00;;;8.90;99.90;;;;;;4972065;28;20787;-70
2021/11/20 08:55:00;;;;;;;31.37;28.17;;;8.90;99.90;;;;;;4972027;28;20456;-71
2021/11/20 08:57:27;;;;;;;29.17;26.30;;;9.00;99.90;;;;;;4972146;28;20456;-70
2021/11/20 08:59:54;;;;;;;31.73;28.27;;;8.90;99.90;;;;;;4971720;28;20950;-70
2021/11/20 09:02:24;;;;;;;32.13;28.87;;;8.80;99.90;;;;;;4971593;28;20459;-72
2021/11/20 09:04:54;;;;;;;30.67;27.53;;;8.80;99.90;;;;;;4971587;28;20459;-72
2021/11/20 09:07:26;;;;;;;33.07;29.60;;;8.80;99.90;;;;;;4971647;28;20459;-72
2021/11/20 09:09:55;;;;;;;29.50;25.77;;;8.80;99.90;;;;;;4970636;28;20483;-72
2021/11/20 09:12:27;;;;;;;29.67;26.80;;;9.00;99.90;;;;;;4971479;28;20462;-72
2021/11/20 09:14:58;;;;;;;34.03;28.53;;;9.00;99.90;;;;;;4971530;28;20466;-71
2021/11/20 09:17:25;;;;;;;31.77;28.43;;;8.90;99.90;;;;;;4971616;28;20474;-71
2021/11/20 09:19:52;;;;;;;31.63;28.53;;;9.00;99.90;;;;;;4971441;28;20535;-73
2021/11/20 09:22:19;;;;;;;30.73;27.60;;;9.10;99.90;;;;;;4971303;28;20455;-72
2021/11/20 09:24:49;;;;;;;30.83;27.67;;;9.10;99.90;;;;;;4971331;28;20466;-73
2021/11/20 09:27:17;;;;;;;31.33;27.93;;;9.10;99.90;;;;;;4971562;28;20477;-72
2021/11/20 09:29:44;;;;;;;30.47;27.40;;;9.20;99.90;;;;;;4970855;28;20841;-73
2021/11/20 09:32:12;;;;;;;27.73;24.93;;;9.30;99.90;;;;;;4971094;28;20452;-72
2021/11/20 09:34:39;;;;;;;29.43;26.33;;;9.40;99.90;;;;;;4971260;28;20461;-72
2021/11/20 09:37:06;;;;;;;26.93;24.33;;;9.20;99.90;;;;;;4971450;28;20465;-74
2021/11/20 09:39:36;;;;;;;30.03;27.13;;;9.40;99.90;;;;;;4971227;28;20451;-73
2021/11/20 09:42:31;;;;;;;29.30;26.10;;;9.30;99.90;;;;;;4971331;28;20810;-75
2021/11/20 09:45:00;;;;;;;30.07;27.00;;;9.50;99.90;;;;;;4971376;28;20455;-73
2021/11/20 09:47:29;;;;;;;28.70;25.50;;;9.50;99.90;;;;;;4971143;28;20484;-72
2021/11/20 09:50:02;;;;;;;27.60;24.87;;;9.50;99.90;;;;;;4970808;28;20495;-73
2021/11/20 09:52:29;;;;;;;29.73;26.73;;;9.50;99.90;;;;;;4971116;28;20786;-72
2021/11/20 09:54:56;;;;;;;28.60;25.70;;;9.60;99.90;;;;;;4970463;28;20949;-73
2021/11/20 09:57:27;;;;;;;26.90;24.27;;;9.50;99.90;;;;;;4970859;28;20454;-70
2021/11/20 09:59:58;;;;;;;29.00;25.80;;;9.40;99.90;;;;;;4971027;28;20450;-73
2021/11/20 10:02:30;;;;;;;27.07;24.27;;;9.50;99.90;;;;;;4970682;28;20468;-73
2021/11/20 10:05:02;;;;;;;25.13;22.73;;;9.60;99.90;;;;;;4970859;28;20455;-73
2021/11/20 10:07:31;;;;;;;27.90;23.33;;;9.80;99.90;;;;;;4975565;28;20889;-73
2021/11/20 10:10:02;;;;;;;27.43;24.73;;;10.00;99.90;;;;;;4990132;28;20489;-73
2021/11/20 10:12:36;;;;;;;24.43;22.17;;;10.00;99.90;;;;;;4990494;28;20463;-72
2021/11/20 10:15:11;;;;;;;27.17;24.57;;;10.00;99.90;;;;;;4990202;28;20451;-73
2021/11/20 10:17:49;;;;;;;26.27;23.80;;;10.00;99.90;;;;;;4970727;28;20485;-73
2021/11/20 10:20:29;;;;;;;23.97;21.67;;;10.20;99.90;;;;;;4970984;28;20455;-73
2021/11/20 10:23:01;;;;;;;24.90;22.40;;;10.30;99.90;;;;;;4974295;28;20451;-73
2021/11/20 10:25:53;;;;;;;22.90;20.53;;;10.20;99.90;;;;;;4988672;28;20459;-73
2021/11/20 10:28:46;;;;;;;23.03;20.93;;;10.20;99.90;;;;;;4993555;28;20546;-73
2021/11/20 10:31:16;;;;;;;24.33;21.93;;;10.00;99.90;;;;;;4993703;28;20447;-73
2021/11/20 10:33:47;;;;;;;23.60;21.33;;;9.90;99.90;;;;;;4993635;28;20450;-72
2021/11/20 10:36:26;;;;;;;24.40;22.20;;;10.10;99.90;;;;;;4993653;28;20482;-73
2021/11/20 10:38:57;;;;;;;24.90;22.40;;;10.20;99.90;;;;;;5011344;28;20445;-73
2021/11/20 10:41:28;;;;;;;22.37;20.20;;;10.40;99.90;;;;;;5007692;28;20458;-73
2021/11/20 10:44:10;;;;;;;23.67;21.47;;;10.20;99.90;;;;;;4993385;28;20972;-73
2021/11/20 10:46:58;;;;;;;22.77;20.63;;;10.20;99.90;;;;;;4993654;28;20819;-73
2021/11/20 10:49:42;;;;;;;20.47;18.67;;;10.00;99.90;;;;;;4993343;28;20495;-73
2021/11/20 10:52:15;;;;;;;20.90;19.20;;;10.00;99.90;;;;;;4993470;28;20444;-73
2021/11/20 10:55:09;;;;;;;24.07;21.90;;;10.10;99.90;;;;;;4992543;28;20806;-74
2021/11/20 10:58:21;;;;;;;21.67;19.67;;;10.10;99.90;;;;;;4993238;28;20461;-73
2021/11/20 11:01:15;;;;;;;17.27;16.07;;;10.20;99.90;;;;;;4993163;28;20820;-72
2021/11/20 11:03:44;;;;;;;19.37;17.73;;;10.20;99.90;;;;;;4992775;28;20439;-73
2021/11/20 11:06:43;;;;;;;18.57;17.07;;;10.20;99.90;;;;;;4992956;28;20808;-73
2021/11/20 11:09:24;;;;;;;19.30;17.60;;;10.10;99.90;;;;;;4992826;28;21008;-73
2021/11/20 11:11:56;;;;;;;18.03;16.60;;;10.20;99.90;;;;;;4992866;28;20459;-72
2021/11/20 11:14:44;;;;;;;16.80;14.73;;;10.30;99.90;;;;;;4992864;28;20455;-73
2021/11/20 11:17:20;;;;;;;16.70;15.40;;;10.30;99.90;;;;;;4992766;28;20945;-73
2021/11/20 11:19:50;;;;;;;15.47;14.37;;;10.50;99.90;;;;;;4993066;28;20515;-73
2021/11/20 11:22:30;;;;;;;14.03;12.97;;;10.40;99.90;;;;;;4992917;28;20455;-74
2021/11/20 11:25:09;;;;;;;17.00;15.47;;;10.30;99.90;;;;;;4992755;28;20455;-73
2021/11/20 11:27:49;;;;;;;16.27;15.07;;;10.20;99.90;;;;;;4992472;28;20482;-74
2021/11/20 11:30:23;;;;;;;14.73;13.77;;;9.90;99.90;;;;;;4992733;28;20495;-73
2021/11/20 11:32:52;;;;;;;15.07;13.97;;;10.20;99.90;;;;;;4991531;28;20457;-73
2021/11/20 11:35:23;;;;;;;16.00;14.70;;;10.40;99.90;;;;;;4992428;28;20988;-73
2021/11/20 11:38:05;;;;;;;16.13;14.97;;;10.40;99.90;;;;;;4992482;28;20477;-73
2021/11/20 11:40:39;;;;;;;15.67;14.50;;;10.60;99.90;;;;;;4992380;28;20447;-73
2021/11/20 11:43:12;;;;;;;16.60;15.50;;;10.70;99.90;;;;;;4992484;28;20451;-73
2021/11/20 11:46:18;;;;;;;16.43;15.13;;;10.50;99.90;;;;;;4992510;28;20461;-73
2021/11/20 11:49:12;;;;;;;16.80;15.50;;;10.50;99.90;;;;;;4992464;28;20852;-73
2021/11/20 11:51:57;;;;;;;15.17;14.17;;;10.40;99.90;;;;;;4989746;28;20891;-73
2021/11/20 11:54:35;;;;;;;15.50;14.30;;;10.50;99.90;;;;;;4991889;28;20459;-73
2021/11/20 11:57:20;;;;;;;15.87;14.67;;;10.70;99.90;;;;;;4992226;28;20458;-73
2021/11/20 12:00:06;;;;;;;17.40;16.00;;;10.80;99.90;;;;;;4992138;28;20444;-73
2021/11/20 12:02:46;;;;;;;17.47;16.27;;;10.70;99.90;;;;;;4991331;28;20459;-74
2021/11/20 12:05:32;;;;;;;17.30;16.20;;;10.60;99.90;;;;;;4994808;28;20446;-73
2021/11/20 12:08:13;;;;;;;17.03;15.83;;;10.50;99.90;;;;;;4995717;28;20462;-73
2021/11/20 12:10:54;;;;;;;15.83;14.83;;;10.50;99.90;;;;;;5008911;28;20492;-73
2021/11/20 12:13:31;;;;;;;15.20;14.17;;;10.60;99.90;;;;;;5011114;28;20453;-73
2021/11/20 12:16:08;;;;;;;15.50;14.60;;;10.70;99.90;;;;;;5011227;28;20448;-73
2021/11/20 12:18:48;;;;;;;16.43;14.90;;;10.90;99.90;;;;;;5011058;28;20460;-73
2021/11/20 12:21:22;;;;;;;15.60;14.30;;;11.00;99.90;;;;;;5011206;28;20787;-74
2021/11/20 12:23:54;;;;;;;16.93;15.63;;;10.80;99.90;;;;;;5011000;28;20462;-73
2021/11/20 12:26:24;;;;;;;16.07;14.60;;;10.90;99.90;;;;;;5010926;28;20458;-73
2021/11/20 12:29:09;;;;;;;17.23;15.93;;;10.80;99.90;;;;;;5010624;28;21003;-73
2021/11/20 12:31:57;;;;;;;17.30;16.00;;;10.70;99.90;;;;;;5010771;28;20454;-71
2021/11/20 12:34:38;;;;;;;17.60;16.20;;;10.40;99.90;;;;;;5010802;28;20891;-74
2021/11/20 12:37:20;;;;;;;16.63;15.23;;;10.50;99.90;;;;;;5010613;28;20453;-73
2021/11/20 12:40:09;;;;;;;16.93;15.63;;;10.70;99.90;;;;;;5010836;28;20453;-73
2021/11/20 12:42:49;;;;;;;17.70;16.30;;;10.70;99.90;;;;;;5010597;28;20456;-72
2021/11/20 12:45:40;;;;;;;17.27;15.53;;;10.20;99.90;;;;;;5010640;28;20458;-72
2021/11/20 12:48:17;;;;;;;17.23;15.90;;;10.10;99.90;;;;;;5010415;28;20447;-72
2021/11/20 12:51:05;;;;;;;16.23;14.83;;;10.10;99.90;;;;;;5010765;28;20970;-72
2021/11/20 12:53:37;;;;;;;18.03;16.47;;;10.20;99.90;;;;;;5009799;28;20441;-72
2021/11/20 12:56:28;;;;;;;15.80;14.77;;;10.30;99.90;;;;;;4990801;28;20455;-72
2021/11/20 12:58:57;;;;;;;17.77;16.47;;;10.30;99.90;;;;;;4990696;28;20937;-73